sensor_id;sensor_type;location;lat;lon;timestamp;P1;durP1;ratioP1;P2;durP2;ratioP2
25319;SDS011;13256;49.012;8.610;2023-01-31T00:00:34;10.00;;;5.15;;
25319;SDS011;13256;49.012;8.610;2023-01-31T00:03:04;10.48;;;5.68;;
25319;SDS011;13256;49.012;8.610;2023-01-31T00:05:31;11.45;;;5.25;;
25319;SDS011;13256;49.012;8.610;2023-01-31T00:07:59;15.23;;;4.78;;
25319;SDS011;13256;49.012;8.610;2023-01-31T00:10:30;11.10;;;5.45;;
25319;SDS011;13256;49.012;8.610;2023-01-31T00:12:58;9.50;;;4.78;;
25319;SDS011;13256;49.012;8.610;2023-01-31T00:15:29;10.57;;;4.95;;
25319;SDS011;13256;49.012;8.610;2023-01-31T00:17:56;6.95;;;4.70;;
25319;SDS011;13256;49.012;8.610;2023-01-31T00:20:24;8.15;;;4.63;;
25319;SDS011;13256;49.012;8.610;2023-01-31T00:22:51;10.20;;;4.70;;
25319;SDS011;13256;49.012;8.610;2023-01-31T00:25:21;9.98;;;5.13;;
25319;SDS011;13256;49.012;8.610;2023-01-31T00:27:47;7.95;;;4.22;;
25319;SDS011;13256;49.012;8.610;2023-01-31T00:30:19;14.15;;;5.35;;
25319;SDS011;13256;49.012;8.610;2023-01-31T00:32:45;7.72;;;4.80;;
25319;SDS011;13256;49.012;8.610;2023-01-31T00:38:07;11.02;;;4.78;;
25319;SDS011;13256;49.012;8.610;2023-01-31T00:40:36;8.82;;;4.68;;
25319;SDS011;13256;49.012;8.610;2023-01-31T00:43:03;6.78;;;4.18;;
25319;SDS011;13256;49.012;8.610;2023-01-31T00:45:36;8.45;;;4.65;;
25319;SDS011;13256;49.012;8.610;2023-01-31T00:48:03;8.90;;;4.32;;
25319;SDS011;13256;49.012;8.610;2023-01-31T00:50:30;10.07;;;4.72;;
25319;SDS011;13256;49.012;8.610;2023-01-31T00:53:01;8.07;;;4.07;;
25319;SDS011;13256;49.012;8.610;2023-01-31T00:55:29;16.48;;;4.63;;
25319;SDS011;13256;49.012;8.610;2023-01-31T00:57:56;14.70;;;4.90;;
25319;SDS011;13256;49.012;8.610;2023-01-31T01:00:25;13.57;;;4.88;;
25319;SDS011;13256;49.012;8.610;2023-01-31T01:02:52;10.43;;;4.63;;
25319;SDS011;13256;49.012;8.610;2023-01-31T01:05:19;13.00;;;4.90;;
25319;SDS011;13256;49.012;8.610;2023-01-31T01:07:49;14.27;;;5.25;;
25319;SDS011;13256;49.012;8.610;2023-01-31T01:10:16;12.98;;;5.07;;
25319;SDS011;13256;49.012;8.610;2023-01-31T01:12:43;9.18;;;5.30;;
25319;SDS011;13256;49.012;8.610;2023-01-31T01:15:13;12.50;;;5.05;;
25319;SDS011;13256;49.012;8.610;2023-01-31T01:17:42;11.60;;;5.00;;
25319;SDS011;13256;49.012;8.610;2023-01-31T01:20:13;10.82;;;5.05;;
25319;SDS011;13256;49.012;8.610;2023-01-31T01:22:41;9.13;;;4.88;;
25319;SDS011;13256;49.012;8.610;2023-01-31T01:25:11;11.15;;;4.85;;
25319;SDS011;13256;49.012;8.610;2023-01-31T01:27:40;12.43;;;5.07;;
25319;SDS011;13256;49.012;8.610;2023-01-31T01:30:07;11.50;;;5.65;;
25319;SDS011;13256;49.012;8.610;2023-01-31T01:32:34;11.35;;;4.93;;
25319;SDS011;13256;49.012;8.610;2023-01-31T01:35:01;13.45;;;5.53;;
25319;SDS011;13256;49.012;8.610;2023-01-31T01:37:28;11.45;;;5.25;;
25319;SDS011;13256;49.012;8.610;2023-01-31T01:39:55;8.32;;;5.00;;
25319;SDS011;13256;49.012;8.610;2023-01-31T01:42:29;12.68;;;5.35;;
25319;SDS011;13256;49.012;8.610;2023-01-31T01:45:00;15.05;;;6.30;;
25319;SDS011;13256;49.012;8.610;2023-01-31T01:50:08;14.27;;;6.20;;
25319;SDS011;13256;49.012;8.610;2023-01-31T01:52:47;10.27;;;5.18;;
25319;SDS011;13256;49.012;8.610;2023-01-31T01:58:05;10.48;;;6.28;;
25319;SDS011;13256;49.012;8.610;2023-01-31T02:00:35;13.52;;;6.65;;
25319;SDS011;13256;49.012;8.610;2023-01-31T02:03:05;9.73;;;5.57;;
25319;SDS011;13256;49.012;8.610;2023-01-31T02:05:41;11.30;;;6.13;;
25319;SDS011;13256;49.012;8.610;2023-01-31T02:08:14;9.40;;;5.95;;
25319;SDS011;13256;49.012;8.610;2023-01-31T02:13:24;11.20;;;5.88;;
25319;SDS011;13256;49.012;8.610;2023-01-31T02:15:55;14.85;;;6.50;;
25319;SDS011;13256;49.012;8.610;2023-01-31T02:18:23;11.93;;;6.18;;
25319;SDS011;13256;49.012;8.610;2023-01-31T02:21:57;11.07;;;6.00;;
25319;SDS011;13256;49.012;8.610;2023-01-31T02:27:09;11.93;;;6.18;;
25319;SDS011;13256;49.012;8.610;2023-01-31T02:35:50;15.02;;;6.70;;
25319;SDS011;13256;49.012;8.610;2023-01-31T02:38:44;12.50;;;6.25;;
25319;SDS011;13256;49.012;8.610;2023-01-31T02:41:29;15.15;;;6.05;;
25319;SDS011;13256;49.012;8.610;2023-01-31T02:56:31;11.90;;;6.07;;
25319;SDS011;13256;49.012;8.610;2023-01-31T03:01:54;15.60;;;6.57;;
25319;SDS011;13256;49.012;8.610;2023-01-31T03:04:29;14.40;;;7.38;;
25319;SDS011;13256;49.012;8.610;2023-01-31T03:07:33;22.90;;;7.53;;
25319;SDS011;13256;49.012;8.610;2023-01-31T03:19:30;16.05;;;6.60;;
25319;SDS011;13256;49.012;8.610;2023-01-31T03:21:50;15.02;;;6.88;;
25319;SDS011;13256;49.012;8.610;2023-01-31T03:24:39;22.58;;;6.95;;
25319;SDS011;13256;49.012;8.610;2023-01-31T03:27:06;15.15;;;6.57;;
25319;SDS011;13256;49.012;8.610;2023-01-31T03:29:36;16.77;;;7.13;;
25319;SDS011;13256;49.012;8.610;2023-01-31T03:32:31;14.45;;;7.32;;
25319;SDS011;13256;49.012;8.610;2023-01-31T03:35:10;11.88;;;6.40;;
25319;SDS011;13256;49.012;8.610;2023-01-31T03:37:49;16.90;;;7.55;;
25319;SDS011;13256;49.012;8.610;2023-01-31T03:40:32;15.05;;;7.40;;
25319;SDS011;13256;49.012;8.610;2023-01-31T03:43:12;15.38;;;7.32;;
25319;SDS011;13256;49.012;8.610;2023-01-31T03:48:27;16.40;;;7.45;;
25319;SDS011;13256;49.012;8.610;2023-01-31T03:50:58;23.85;;;8.70;;
25319;SDS011;13256;49.012;8.610;2023-01-31T03:53:31;17.35;;;7.50;;
25319;SDS011;13256;49.012;8.610;2023-01-31T03:57:19;21.85;;;8.15;;
25319;SDS011;13256;49.012;8.610;2023-01-31T04:00:00;15.35;;;8.10;;
25319;SDS011;13256;49.012;8.610;2023-01-31T04:02:33;22.35;;;7.30;;
25319;SDS011;13256;49.012;8.610;2023-01-31T04:07:43;22.67;;;9.68;;
25319;SDS011;13256;49.012;8.610;2023-01-31T04:10:20;15.93;;;8.15;;
25319;SDS011;13256;49.012;8.610;2023-01-31T04:12:53;21.15;;;8.20;;
25319;SDS011;13256;49.012;8.610;2023-01-31T04:15:29;18.25;;;9.18;;
25319;SDS011;13256;49.012;8.610;2023-01-31T04:17:55;22.10;;;7.22;;
25319;SDS011;13256;49.012;8.610;2023-01-31T04:20:24;19.58;;;8.48;;
25319;SDS011;13256;49.012;8.610;2023-01-31T04:23:03;19.02;;;8.60;;
25319;SDS011;13256;49.012;8.610;2023-01-31T04:25:57;21.13;;;9.10;;
25319;SDS011;13256;49.012;8.610;2023-01-31T04:28:27;17.88;;;7.93;;
25319;SDS011;13256;49.012;8.610;2023-01-31T04:30:59;18.85;;;7.93;;
25319;SDS011;13256;49.012;8.610;2023-01-31T04:35:59;20.90;;;8.27;;
25319;SDS011;13256;49.012;8.610;2023-01-31T04:38:26;16.33;;;7.22;;
25319;SDS011;13256;49.012;8.610;2023-01-31T04:40:55;20.13;;;8.05;;
25319;SDS011;13256;49.012;8.610;2023-01-31T04:43:28;17.60;;;7.97;;
25319;SDS011;13256;49.012;8.610;2023-01-31T04:48:21;16.50;;;6.30;;
25319;SDS011;13256;49.012;8.610;2023-01-31T04:50:55;18.23;;;7.78;;
25319;SDS011;13256;49.012;8.610;2023-01-31T04:53:23;16.83;;;7.78;;
25319;SDS011;13256;49.012;8.610;2023-01-31T04:55:53;20.33;;;7.97;;
25319;SDS011;13256;49.012;8.610;2023-01-31T04:58:24;20.38;;;8.95;;
25319;SDS011;13256;49.012;8.610;2023-01-31T05:00:54;21.80;;;8.65;;
25319;SDS011;13256;49.012;8.610;2023-01-31T05:03:28;22.10;;;8.88;;
25319;SDS011;13256;49.012;8.610;2023-01-31T05:06:00;15.18;;;6.88;;
25319;SDS011;13256;49.012;8.610;2023-01-31T05:08:27;16.90;;;7.68;;
25319;SDS011;13256;49.012;8.610;2023-01-31T05:11:00;16.88;;;7.00;;
25319;SDS011;13256;49.012;8.610;2023-01-31T05:13:30;15.70;;;8.18;;
25319;SDS011;13256;49.012;8.610;2023-01-31T05:16:07;21.52;;;8.60;;
25319;SDS011;13256;49.012;8.610;2023-01-31T05:18:36;13.85;;;7.57;;
25319;SDS011;13256;49.012;8.610;2023-01-31T05:21:05;21.88;;;8.57;;
25319;SDS011;13256;49.012;8.610;2023-01-31T05:23:36;21.63;;;8.13;;
25319;SDS011;13256;49.012;8.610;2023-01-31T05:26:07;17.88;;;7.85;;
25319;SDS011;13256;49.012;8.610;2023-01-31T05:28:34;17.67;;;8.25;;
25319;SDS011;13256;49.012;8.610;2023-01-31T05:31:06;16.92;;;7.53;;
25319;SDS011;13256;49.012;8.610;2023-01-31T05:33:40;22.15;;;8.20;;
25319;SDS011;13256;49.012;8.610;2023-01-31T05:36:11;16.90;;;7.75;;
25319;SDS011;13256;49.012;8.610;2023-01-31T05:41:35;18.55;;;8.05;;
25319;SDS011;13256;49.012;8.610;2023-01-31T05:44:02;21.85;;;8.20;;
25319;SDS011;13256;49.012;8.610;2023-01-31T05:46:29;17.20;;;8.15;;
25319;SDS011;13256;49.012;8.610;2023-01-31T05:48:56;20.30;;;8.57;;
25319;SDS011;13256;49.012;8.610;2023-01-31T05:51:32;16.27;;;7.10;;
25319;SDS011;13256;49.012;8.610;2023-01-31T05:53:59;26.50;;;8.90;;
25319;SDS011;13256;49.012;8.610;2023-01-31T05:57:11;19.17;;;8.13;;
25319;SDS011;13256;49.012;8.610;2023-01-31T05:59:40;17.10;;;7.65;;
25319;SDS011;13256;49.012;8.610;2023-01-31T06:02:07;17.38;;;7.53;;
25319;SDS011;13256;49.012;8.610;2023-01-31T06:04:36;22.17;;;9.23;;
25319;SDS011;13256;49.012;8.610;2023-01-31T06:07:05;19.40;;;8.45;;
25319;SDS011;13256;49.012;8.610;2023-01-31T06:09:35;25.33;;;9.23;;
25319;SDS011;13256;49.012;8.610;2023-01-31T06:12:03;22.92;;;8.90;;
25319;SDS011;13256;49.012;8.610;2023-01-31T06:14:33;20.10;;;9.05;;
25319;SDS011;13256;49.012;8.610;2023-01-31T06:17:01;17.95;;;8.70;;
25319;SDS011;13256;49.012;8.610;2023-01-31T06:19:29;20.35;;;8.05;;
25319;SDS011;13256;49.012;8.610;2023-01-31T06:22:03;19.27;;;9.25;;
25319;SDS011;13256;49.012;8.610;2023-01-31T06:24:35;22.70;;;9.50;;
25319;SDS011;13256;49.012;8.610;2023-01-31T06:27:04;18.15;;;7.60;;
25319;SDS011;13256;49.012;8.610;2023-01-31T06:29:32;25.05;;;10.32;;
25319;SDS011;13256;49.012;8.610;2023-01-31T06:32:02;24.77;;;9.07;;
25319;SDS011;13256;49.012;8.610;2023-01-31T06:34:33;19.48;;;9.00;;
25319;SDS011;13256;49.012;8.610;2023-01-31T06:36:59;22.38;;;9.93;;
25319;SDS011;13256;49.012;8.610;2023-01-31T06:39:26;18.48;;;8.68;;
25319;SDS011;13256;49.012;8.610;2023-01-31T06:41:53;23.58;;;9.98;;
25319;SDS011;13256;49.012;8.610;2023-01-31T06:44:21;19.92;;;9.57;;
25319;SDS011;13256;49.012;8.610;2023-01-31T06:46:50;23.50;;;9.98;;
25319;SDS011;13256;49.012;8.610;2023-01-31T06:49:20;19.20;;;9.07;;
25319;SDS011;13256;49.012;8.610;2023-01-31T06:51:46;21.92;;;9.95;;
25319;SDS011;13256;49.012;8.610;2023-01-31T06:54:13;21.98;;;9.73;;
25319;SDS011;13256;49.012;8.610;2023-01-31T06:56:41;23.33;;;10.18;;
25319;SDS011;13256;49.012;8.610;2023-01-31T06:59:08;22.98;;;10.00;;
25319;SDS011;13256;49.012;8.610;2023-01-31T07:01:40;31.20;;;10.13;;
25319;SDS011;13256;49.012;8.610;2023-01-31T07:04:11;32.20;;;10.50;;
25319;SDS011;13256;49.012;8.610;2023-01-31T07:06:38;24.88;;;9.73;;
25319;SDS011;13256;49.012;8.610;2023-01-31T07:09:05;22.58;;;10.02;;
25319;SDS011;13256;49.012;8.610;2023-01-31T07:11:36;27.92;;;10.63;;
25319;SDS011;13256;49.012;8.610;2023-01-31T07:14:03;27.65;;;10.85;;
25319;SDS011;13256;49.012;8.610;2023-01-31T07:16:33;30.27;;;10.48;;
25319;SDS011;13256;49.012;8.610;2023-01-31T07:19:01;25.65;;;10.35;;
25319;SDS011;13256;49.012;8.610;2023-01-31T07:21:31;24.08;;;10.55;;
25319;SDS011;13256;49.012;8.610;2023-01-31T07:24:04;19.17;;;8.73;;
25319;SDS011;13256;49.012;8.610;2023-01-31T07:26:33;23.40;;;8.13;;
25319;SDS011;13256;49.012;8.610;2023-01-31T07:29:03;28.85;;;10.20;;
25319;SDS011;13256;49.012;8.610;2023-01-31T07:31:42;20.88;;;8.40;;
25319;SDS011;13256;49.012;8.610;2023-01-31T07:34:09;22.63;;;8.85;;
25319;SDS011;13256;49.012;8.610;2023-01-31T07:36:36;21.35;;;8.20;;
25319;SDS011;13256;49.012;8.610;2023-01-31T07:39:03;18.08;;;9.10;;
25319;SDS011;13256;49.012;8.610;2023-01-31T07:41:30;15.88;;;7.03;;
25319;SDS011;13256;49.012;8.610;2023-01-31T07:49:55;22.10;;;7.15;;
25319;SDS011;13256;49.012;8.610;2023-01-31T07:52:22;12.60;;;6.07;;
25319;SDS011;13256;49.012;8.610;2023-01-31T07:54:50;16.50;;;7.22;;
25319;SDS011;13256;49.012;8.610;2023-01-31T07:57:19;15.93;;;7.25;;
25319;SDS011;13256;49.012;8.610;2023-01-31T07:59:47;14.35;;;5.60;;
25319;SDS011;13256;49.012;8.610;2023-01-31T08:02:15;16.75;;;6.68;;
25319;SDS011;13256;49.012;8.610;2023-01-31T08:05:07;19.00;;;6.75;;
25319;SDS011;13256;49.012;8.610;2023-01-31T08:07:35;14.20;;;6.05;;
25319;SDS011;13256;49.012;8.610;2023-01-31T08:10:03;14.15;;;6.95;;
25319;SDS011;13256;49.012;8.610;2023-01-31T08:12:30;14.30;;;5.93;;
25319;SDS011;13256;49.012;8.610;2023-01-31T08:15:02;13.73;;;6.10;;
25319;SDS011;13256;49.012;8.610;2023-01-31T08:17:31;12.27;;;5.45;;
25319;SDS011;13256;49.012;8.610;2023-01-31T08:19:59;13.60;;;6.13;;
25319;SDS011;13256;49.012;8.610;2023-01-31T08:22:26;16.65;;;6.60;;
25319;SDS011;13256;49.012;8.610;2023-01-31T08:24:53;13.43;;;6.10;;
25319;SDS011;13256;49.012;8.610;2023-01-31T08:27:26;17.23;;;5.97;;
25319;SDS011;13256;49.012;8.610;2023-01-31T08:30:04;10.68;;;5.60;;
25319;SDS011;13256;49.012;8.610;2023-01-31T08:32:31;13.55;;;5.85;;
25319;SDS011;13256;49.012;8.610;2023-01-31T08:34:58;11.77;;;5.22;;
25319;SDS011;13256;49.012;8.610;2023-01-31T08:37:31;16.42;;;6.13;;
25319;SDS011;13256;49.012;8.610;2023-01-31T08:39:59;15.05;;;6.25;;
25319;SDS011;13256;49.012;8.610;2023-01-31T08:42:25;12.02;;;5.20;;
25319;SDS011;13256;49.012;8.610;2023-01-31T08:44:52;11.82;;;4.93;;
25319;SDS011;13256;49.012;8.610;2023-01-31T08:47:20;12.27;;;5.95;;
25319;SDS011;13256;49.012;8.610;2023-01-31T08:49:55;19.67;;;4.82;;
25319;SDS011;13256;49.012;8.610;2023-01-31T08:52:22;14.15;;;5.63;;
25319;SDS011;13256;49.012;8.610;2023-01-31T08:54:52;12.68;;;5.07;;
25319;SDS011;13256;49.012;8.610;2023-01-31T08:57:18;13.68;;;4.97;;
25319;SDS011;13256;49.012;8.610;2023-01-31T08:59:49;12.05;;;5.25;;
25319;SDS011;13256;49.012;8.610;2023-01-31T09:02:20;11.80;;;5.28;;
25319;SDS011;13256;49.012;8.610;2023-01-31T09:04:48;12.65;;;5.82;;
25319;SDS011;13256;49.012;8.610;2023-01-31T09:07:15;10.68;;;5.28;;
25319;SDS011;13256;49.012;8.610;2023-01-31T09:09:46;14.48;;;5.35;;
25319;SDS011;13256;49.012;8.610;2023-01-31T09:12:14;10.48;;;5.05;;
25319;SDS011;13256;49.012;8.610;2023-01-31T09:14:43;12.82;;;4.80;;
25319;SDS011;13256;49.012;8.610;2023-01-31T09:17:10;12.82;;;5.18;;
25319;SDS011;13256;49.012;8.610;2023-01-31T09:19:47;10.85;;;5.18;;
25319;SDS011;13256;49.012;8.610;2023-01-31T09:22:15;16.92;;;5.28;;
25319;SDS011;13256;49.012;8.610;2023-01-31T09:24:43;10.68;;;4.65;;
25319;SDS011;13256;49.012;8.610;2023-01-31T09:27:35;13.32;;;4.82;;
25319;SDS011;13256;49.012;8.610;2023-01-31T09:30:07;10.30;;;5.45;;
25319;SDS011;13256;49.012;8.610;2023-01-31T09:32:37;9.05;;;4.57;;
25319;SDS011;13256;49.012;8.610;2023-01-31T09:35:06;13.95;;;5.22;;
25319;SDS011;13256;49.012;8.610;2023-01-31T09:37:33;11.35;;;4.57;;
25319;SDS011;13256;49.012;8.610;2023-01-31T09:40:03;11.20;;;4.90;;
25319;SDS011;13256;49.012;8.610;2023-01-31T09:42:40;11.13;;;5.07;;
25319;SDS011;13256;49.012;8.610;2023-01-31T09:51:02;12.80;;;5.43;;
25319;SDS011;13256;49.012;8.610;2023-01-31T09:53:39;13.32;;;5.03;;
25319;SDS011;13256;49.012;8.610;2023-01-31T09:58:37;12.02;;;5.18;;
25319;SDS011;13256;49.012;8.610;2023-01-31T10:01:29;12.95;;;5.55;;
25319;SDS011;13256;49.012;8.610;2023-01-31T10:07:04;15.88;;;6.30;;
25319;SDS011;13256;49.012;8.610;2023-01-31T10:15:32;11.73;;;5.90;;
25319;SDS011;13256;49.012;8.610;2023-01-31T10:18:08;11.68;;;5.70;;
25319;SDS011;13256;49.012;8.610;2023-01-31T10:20:54;18.63;;;6.28;;
25319;SDS011;13256;49.012;8.610;2023-01-31T10:23:29;11.93;;;6.22;;
25319;SDS011;13256;49.012;8.610;2023-01-31T10:26:13;13.02;;;5.07;;
25319;SDS011;13256;49.012;8.610;2023-01-31T10:28:51;12.63;;;5.18;;
25319;SDS011;13256;49.012;8.610;2023-01-31T10:31:42;13.57;;;6.47;;
25319;SDS011;13256;49.012;8.610;2023-01-31T10:34:24;8.45;;;4.70;;
25319;SDS011;13256;49.012;8.610;2023-01-31T10:40:17;13.85;;;6.10;;
25319;SDS011;13256;49.012;8.610;2023-01-31T10:43:25;10.40;;;5.15;;
25319;SDS011;13256;49.012;8.610;2023-01-31T10:46:10;11.77;;;4.88;;
25319;SDS011;13256;49.012;8.610;2023-01-31T10:48:38;11.55;;;4.85;;
25319;SDS011;13256;49.012;8.610;2023-01-31T10:54:22;13.10;;;5.13;;
25319;SDS011;13256;49.012;8.610;2023-01-31T10:56:54;9.48;;;5.13;;
25319;SDS011;13256;49.012;8.610;2023-01-31T11:02:00;8.43;;;4.78;;
25319;SDS011;13256;49.012;8.610;2023-01-31T11:05:01;11.60;;;4.72;;
25319;SDS011;13256;49.012;8.610;2023-01-31T11:07:23;8.90;;;4.75;;
25319;SDS011;13256;49.012;8.610;2023-01-31T11:10:19;12.45;;;4.70;;
25319;SDS011;13256;49.012;8.610;2023-01-31T11:13:19;11.00;;;4.45;;
25319;SDS011;13256;49.012;8.610;2023-01-31T11:15:46;9.15;;;4.50;;
25319;SDS011;13256;49.012;8.610;2023-01-31T11:21:22;8.98;;;4.10;;
25319;SDS011;13256;49.012;8.610;2023-01-31T11:24:01;7.15;;;4.07;;
25319;SDS011;13256;49.012;8.610;2023-01-31T11:26:42;9.40;;;3.90;;
25319;SDS011;13256;49.012;8.610;2023-01-31T11:29:39;10.55;;;4.25;;
25319;SDS011;13256;49.012;8.610;2023-01-31T11:32:17;12.43;;;3.90;;
25319;SDS011;13256;49.012;8.610;2023-01-31T11:35:21;7.90;;;3.42;;
25319;SDS011;13256;49.012;8.610;2023-01-31T11:37:56;10.45;;;4.10;;
25319;SDS011;13256;49.012;8.610;2023-01-31T11:48:16;9.60;;;4.00;;
25319;SDS011;13256;49.012;8.610;2023-01-31T11:50:57;9.02;;;4.57;;
25319;SDS011;13256;49.012;8.610;2023-01-31T11:56:34;9.88;;;3.72;;
25319;SDS011;13256;49.012;8.610;2023-01-31T11:59:03;8.55;;;3.95;;
25319;SDS011;13256;49.012;8.610;2023-01-31T12:01:43;6.00;;;3.20;;
25319;SDS011;13256;49.012;8.610;2023-01-31T12:04:19;6.10;;;2.65;;
25319;SDS011;13256;49.012;8.610;2023-01-31T12:07:31;8.88;;;4.05;;
25319;SDS011;13256;49.012;8.610;2023-01-31T12:12:59;6.28;;;3.10;;
25319;SDS011;13256;49.012;8.610;2023-01-31T12:15:51;3.53;;;2.30;;
25319;SDS011;13256;49.012;8.610;2023-01-31T12:23:58;5.38;;;2.65;;
25319;SDS011;13256;49.012;8.610;2023-01-31T12:26:54;7.47;;;2.83;;
25319;SDS011;13256;49.012;8.610;2023-01-31T12:49:01;6.55;;;3.47;;
25319;SDS011;13256;49.012;8.610;2023-01-31T12:58:52;8.25;;;3.20;;
25319;SDS011;13256;49.012;8.610;2023-01-31T13:01:08;6.63;;;3.03;;
25319;SDS011;13256;49.012;8.610;2023-01-31T13:06:40;4.68;;;1.90;;
25319;SDS011;13256;49.012;8.610;2023-01-31T13:09:20;7.95;;;2.30;;
25319;SDS011;13256;49.012;8.610;2023-01-31T13:12:00;12.60;;;3.00;;
25319;SDS011;13256;49.012;8.610;2023-01-31T13:14:36;7.95;;;2.45;;
25319;SDS011;13256;49.012;8.610;2023-01-31T13:17:30;6.32;;;2.38;;
25319;SDS011;13256;49.012;8.610;2023-01-31T13:20:06;6.28;;;2.47;;
25319;SDS011;13256;49.012;8.610;2023-01-31T13:22:58;6.47;;;2.80;;
25319;SDS011;13256;49.012;8.610;2023-01-31T13:28:04;5.60;;;2.20;;
25319;SDS011;13256;49.012;8.610;2023-01-31T13:30:50;5.50;;;2.80;;
25319;SDS011;13256;49.012;8.610;2023-01-31T13:33:45;23.27;;;8.10;;
25319;SDS011;13256;49.012;8.610;2023-01-31T13:36:20;6.93;;;2.90;;
25319;SDS011;13256;49.012;8.610;2023-01-31T13:39:07;6.93;;;3.42;;
25319;SDS011;13256;49.012;8.610;2023-01-31T13:41:47;5.93;;;2.38;;
25319;SDS011;13256;49.012;8.610;2023-01-31T13:44:14;7.68;;;2.90;;
25319;SDS011;13256;49.012;8.610;2023-01-31T13:46:49;9.13;;;2.55;;
25319;SDS011;13256;49.012;8.610;2023-01-31T13:52:00;4.93;;;2.88;;
25319;SDS011;13256;49.012;8.610;2023-01-31T13:54:36;7.10;;;2.85;;
25319;SDS011;13256;49.012;8.610;2023-01-31T14:02:34;5.00;;;1.88;;
25319;SDS011;13256;49.012;8.610;2023-01-31T14:05:06;9.23;;;2.50;;
25319;SDS011;13256;49.012;8.610;2023-01-31T14:10:57;5.80;;;2.70;;
25319;SDS011;13256;49.012;8.610;2023-01-31T14:16:01;5.95;;;3.03;;
25319;SDS011;13256;49.012;8.610;2023-01-31T14:23:56;4.70;;;2.33;;
25319;SDS011;13256;49.012;8.610;2023-01-31T14:29:15;7.15;;;2.35;;
25319;SDS011;13256;49.012;8.610;2023-01-31T14:31:45;5.20;;;2.78;;
25319;SDS011;13256;49.012;8.610;2023-01-31T14:34:15;8.55;;;3.33;;
25319;SDS011;13256;49.012;8.610;2023-01-31T14:59:02;6.38;;;2.65;;
25319;SDS011;13256;49.012;8.610;2023-01-31T15:01:35;9.00;;;3.42;;
25319;SDS011;13256;49.012;8.610;2023-01-31T15:04:03;5.32;;;3.17;;
25319;SDS011;13256;49.012;8.610;2023-01-31T15:06:32;7.20;;;2.75;;
25319;SDS011;13256;49.012;8.610;2023-01-31T15:11:51;10.32;;;3.10;;
25319;SDS011;13256;49.012;8.610;2023-01-31T15:17:20;4.82;;;2.90;;
25319;SDS011;13256;49.012;8.610;2023-01-31T15:20:18;12.25;;;3.47;;
25319;SDS011;13256;49.012;8.610;2023-01-31T15:22:52;8.63;;;3.63;;
25319;SDS011;13256;49.012;8.610;2023-01-31T15:25:27;12.27;;;4.57;;
25319;SDS011;13256;49.012;8.610;2023-01-31T15:30:50;6.50;;;3.58;;
25319;SDS011;13256;49.012;8.610;2023-01-31T15:33:24;7.90;;;3.33;;
25319;SDS011;13256;49.012;8.610;2023-01-31T15:35:59;12.20;;;3.55;;
25319;SDS011;13256;49.012;8.610;2023-01-31T15:41:31;9.13;;;3.55;;
25319;SDS011;13256;49.012;8.610;2023-01-31T15:46:52;11.35;;;4.53;;
25319;SDS011;13256;49.012;8.610;2023-01-31T15:54:57;8.82;;;3.63;;
25319;SDS011;13256;49.012;8.610;2023-01-31T15:57:31;7.65;;;3.28;;
25319;SDS011;13256;49.012;8.610;2023-01-31T16:02:53;9.80;;;3.47;;
25319;SDS011;13256;49.012;8.610;2023-01-31T16:05:27;6.65;;;3.30;;
25319;SDS011;13256;49.012;8.610;2023-01-31T16:07:59;7.00;;;3.28;;
25319;SDS011;13256;49.012;8.610;2023-01-31T16:10:30;8.10;;;3.65;;
25319;SDS011;13256;49.012;8.610;2023-01-31T16:12:57;8.68;;;3.60;;
25319;SDS011;13256;49.012;8.610;2023-01-31T16:15:35;8.10;;;3.25;;
25319;SDS011;13256;49.012;8.610;2023-01-31T16:18:04;8.65;;;4.10;;
25319;SDS011;13256;49.012;8.610;2023-01-31T16:20:32;9.15;;;3.03;;
25319;SDS011;13256;49.012;8.610;2023-01-31T16:26:19;11.27;;;3.60;;
25319;SDS011;13256;49.012;8.610;2023-01-31T16:28:53;7.35;;;3.13;;
25319;SDS011;13256;49.012;8.610;2023-01-31T16:34:27;9.50;;;5.07;;
25319;SDS011;13256;49.012;8.610;2023-01-31T16:36:59;9.82;;;4.75;;
25319;SDS011;13256;49.012;8.610;2023-01-31T16:43:18;7.93;;;3.45;;
25319;SDS011;13256;49.012;8.610;2023-01-31T16:45:52;8.35;;;4.03;;
25319;SDS011;13256;49.012;8.610;2023-01-31T16:48:46;10.55;;;4.32;;
25319;SDS011;13256;49.012;8.610;2023-01-31T16:54:18;12.05;;;4.40;;
25319;SDS011;13256;49.012;8.610;2023-01-31T16:57:35;9.85;;;4.03;;
25319;SDS011;13256;49.012;8.610;2023-01-31T16:59:49;6.53;;;4.30;;
25319;SDS011;13256;49.012;8.610;2023-01-31T17:04:52;11.68;;;3.97;;
25319;SDS011;13256;49.012;8.610;2023-01-31T17:07:31;6.85;;;3.50;;
25319;SDS011;13256;49.012;8.610;2023-01-31T17:10:03;6.63;;;4.30;;
25319;SDS011;13256;49.012;8.610;2023-01-31T17:12:40;11.07;;;2.90;;
25319;SDS011;13256;49.012;8.610;2023-01-31T17:15:17;8.93;;;3.95;;
25319;SDS011;13256;49.012;8.610;2023-01-31T17:17:45;10.07;;;4.35;;
25319;SDS011;13256;49.012;8.610;2023-01-31T17:20:13;11.30;;;4.10;;
25319;SDS011;13256;49.012;8.610;2023-01-31T17:22:43;10.35;;;3.78;;
25319;SDS011;13256;49.012;8.610;2023-01-31T17:25:25;8.55;;;3.40;;
25319;SDS011;13256;49.012;8.610;2023-01-31T17:28:02;6.40;;;3.60;;
25319;SDS011;13256;49.012;8.610;2023-01-31T17:30:33;10.20;;;4.05;;
25319;SDS011;13256;49.012;8.610;2023-01-31T17:33:02;9.25;;;3.78;;
25319;SDS011;13256;49.012;8.610;2023-01-31T17:35:39;5.18;;;3.42;;
25319;SDS011;13256;49.012;8.610;2023-01-31T17:38:08;5.28;;;3.20;;
25319;SDS011;13256;49.012;8.610;2023-01-31T17:40:39;7.30;;;3.53;;
25319;SDS011;13256;49.012;8.610;2023-01-31T17:43:12;7.68;;;4.45;;
25319;SDS011;13256;49.012;8.610;2023-01-31T17:45:47;11.95;;;3.47;;
25319;SDS011;13256;49.012;8.610;2023-01-31T17:48:14;6.85;;;3.85;;
25319;SDS011;13256;49.012;8.610;2023-01-31T17:50:53;8.77;;;3.75;;
25319;SDS011;13256;49.012;8.610;2023-01-31T17:53:25;6.55;;;3.90;;
25319;SDS011;13256;49.012;8.610;2023-01-31T17:56:04;7.53;;;3.67;;
25319;SDS011;13256;49.012;8.610;2023-01-31T17:58:31;5.18;;;3.55;;
25319;SDS011;13256;49.012;8.610;2023-01-31T18:01:06;6.15;;;3.75;;
25319;SDS011;13256;49.012;8.610;2023-01-31T18:03:35;8.05;;;3.88;;
25319;SDS011;13256;49.012;8.610;2023-01-31T18:06:03;6.53;;;3.78;;
25319;SDS011;13256;49.012;8.610;2023-01-31T18:08:38;6.65;;;3.17;;
25319;SDS011;13256;49.012;8.610;2023-01-31T18:11:09;8.60;;;3.42;;
25319;SDS011;13256;49.012;8.610;2023-01-31T18:13:40;10.02;;;3.95;;
25319;SDS011;13256;49.012;8.610;2023-01-31T18:16:10;6.90;;;3.63;;
25319;SDS011;13256;49.012;8.610;2023-01-31T18:18:40;9.75;;;4.15;;
25319;SDS011;13256;49.012;8.610;2023-01-31T18:21:12;7.53;;;3.70;;
25319;SDS011;13256;49.012;8.610;2023-01-31T18:23:40;11.30;;;4.70;;
25319;SDS011;13256;49.012;8.610;2023-01-31T18:26:08;7.65;;;3.50;;
25319;SDS011;13256;49.012;8.610;2023-01-31T18:28:36;7.50;;;4.13;;
25319;SDS011;13256;49.012;8.610;2023-01-31T18:31:04;8.43;;;3.70;;
25319;SDS011;13256;49.012;8.610;2023-01-31T18:33:41;10.52;;;3.70;;
25319;SDS011;13256;49.012;8.610;2023-01-31T18:36:13;6.05;;;3.63;;
25319;SDS011;13256;49.012;8.610;2023-01-31T18:38:47;7.18;;;4.00;;
25319;SDS011;13256;49.012;8.610;2023-01-31T18:41:16;6.00;;;3.40;;
25319;SDS011;13256;49.012;8.610;2023-01-31T18:43:47;6.70;;;3.20;;
25319;SDS011;13256;49.012;8.610;2023-01-31T18:46:16;8.32;;;3.67;;
25319;SDS011;13256;49.012;8.610;2023-01-31T18:48:43;8.10;;;3.33;;
25319;SDS011;13256;49.012;8.610;2023-01-31T18:51:11;6.82;;;3.42;;
25319;SDS011;13256;49.012;8.610;2023-01-31T18:53:44;7.15;;;3.97;;
25319;SDS011;13256;49.012;8.610;2023-01-31T18:58:45;7.68;;;3.65;;
25319;SDS011;13256;49.012;8.610;2023-01-31T19:01:19;10.60;;;5.10;;
25319;SDS011;13256;49.012;8.610;2023-01-31T19:03:49;7.55;;;3.35;;